sensor_id;sensor_type;location;lat;lon;timestamp;temperature;humidity
52103;DHT22;38101;53.126;6.878;2023-05-27T00:01:32;10.10;99.90
52103;DHT22;38101;53.126;6.878;2023-05-27T00:03:58;10.10;99.90
52103;DHT22;38101;53.126;6.878;2023-05-27T00:06:24;10.10;99.90
52103;DHT22;38101;53.126;6.878;2023-05-27T00:08:50;10.00;99.90
52103;DHT22;38101;53.126;6.878;2023-05-27T00:11:15;10.00;99.90
52103;DHT22;38101;53.126;6.878;2023-05-27T00:13:41;10.00;99.90
52103;DHT22;38101;53.126;6.878;2023-05-27T00:16:07;10.00;99.90
52103;DHT22;38101;53.126;6.878;2023-05-27T00:18:33;10.00;99.90
52103;DHT22;38101;53.126;6.878;2023-05-27T00:20:59;10.00;99.90
52103;DHT22;38101;53.126;6.878;2023-05-27T00:23:25;10.00;99.90
52103;DHT22;38101;53.126;6.878;2023-05-27T00:25:50;9.90;99.90
52103;DHT22;38101;53.126;6.878;2023-05-27T00:28:16;9.90;99.90
52103;DHT22;38101;53.126;6.878;2023-05-27T00:30:42;9.90;99.90
52103;DHT22;38101;53.126;6.878;2023-05-27T00:33:08;9.90;99.90
52103;DHT22;38101;53.126;6.878;2023-05-27T00:35:34;9.90;99.90
52103;DHT22;38101;53.126;6.878;2023-05-27T00:37:59;9.90;99.90
52103;DHT22;38101;53.126;6.878;2023-05-27T00:40:26;9.80;99.90
52103;DHT22;38101;53.126;6.878;2023-05-27T00:42:54;9.80;99.90
52103;DHT22;38101;53.126;6.878;2023-05-27T00:45:21;9.80;99.90
52103;DHT22;38101;53.126;6.878;2023-05-27T00:47:46;9.70;99.90
52103;DHT22;38101;53.126;6.878;2023-05-27T00:50:13;9.70;99.90
52103;DHT22;38101;53.126;6.878;2023-05-27T00:52:39;9.70;99.90
52103;DHT22;38101;53.126;6.878;2023-05-27T00:55:06;9.70;99.90
52103;DHT22;38101;53.126;6.878;2023-05-27T00:57:32;9.60;99.90
52103;DHT22;38101;53.126;6.878;2023-05-27T00:59:58;9.60;99.90
52103;DHT22;38101;53.126;6.878;2023-05-27T01:02:24;9.60;99.90
52103;DHT22;38101;53.126;6.878;2023-05-27T01:04:51;9.60;99.90
52103;DHT22;38101;53.126;6.878;2023-05-27T01:07:30;9.50;99.90
52103;DHT22;38101;53.126;6.878;2023-05-27T01:12:47;9.50;99.90
52103;DHT22;38101;53.126;6.878;2023-05-27T01:15:14;9.50;99.90
52103;DHT22;38101;53.126;6.878;2023-05-27T01:17:41;9.40;99.90
52103;DHT22;38101;53.126;6.878;2023-05-27T01:20:12;9.40;99.90
52103;DHT22;38101;53.126;6.878;2023-05-27T01:22:42;9.40;99.90
52103;DHT22;38101;53.126;6.878;2023-05-27T01:25:09;9.40;99.90
52103;DHT22;38101;53.126;6.878;2023-05-27T01:27:35;9.40;99.90
52103;DHT22;38101;53.126;6.878;2023-05-27T01:30:02;9.40;99.90
52103;DHT22;38101;53.126;6.878;2023-05-27T01:32:40;9.40;99.90
52103;DHT22;38101;53.126;6.878;2023-05-27T01:35:23;9.40;99.90
52103;DHT22;38101;53.126;6.878;2023-05-27T01:37:52;9.40;99.90
52103;DHT22;38101;53.126;6.878;2023-05-27T01:40:20;9.30;99.90
52103;DHT22;38101;53.126;6.878;2023-05-27T01:42:47;9.40;99.90
52103;DHT22;38101;53.126;6.878;2023-05-27T01:45:13;9.30;99.90
52103;DHT22;38101;53.126;6.878;2023-05-27T01:47:39;9.30;99.90
52103;DHT22;38101;53.126;6.878;2023-05-27T01:50:06;9.30;99.90
52103;DHT22;38101;53.126;6.878;2023-05-27T01:52:32;9.30;99.90
52103;DHT22;38101;53.126;6.878;2023-05-27T01:54:58;9.30;99.90
52103;DHT22;38101;53.126;6.878;2023-05-27T01:57:25;9.40;99.90
52103;DHT22;38101;53.126;6.878;2023-05-27T01:59:51;9.30;99.90
52103;DHT22;38101;53.126;6.878;2023-05-27T02:02:17;9.40;99.90
52103;DHT22;38101;53.126;6.878;2023-05-27T02:04:43;9.40;99.90
52103;DHT22;38101;53.126;6.878;2023-05-27T02:07:08;9.40;99.90
52103;DHT22;38101;53.126;6.878;2023-05-27T02:09:34;9.40;99.90
52103;DHT22;38101;53.126;6.878;2023-05-27T02:12:00;9.40;99.90
52103;DHT22;38101;53.126;6.878;2023-05-27T02:14:26;9.40;99.90
52103;DHT22;38101;53.126;6.878;2023-05-27T02:16:52;9.50;99.90
52103;DHT22;38101;53.126;6.878;2023-05-27T02:19:17;9.50;99.90
52103;DHT22;38101;53.126;6.878;2023-05-27T02:21:46;9.40;99.90
52103;DHT22;38101;53.126;6.878;2023-05-27T02:24:12;9.40;99.90
52103;DHT22;38101;53.126;6.878;2023-05-27T02:26:37;9.40;99.90
52103;DHT22;38101;53.126;6.878;2023-05-27T02:29:03;9.40;99.90
52103;DHT22;38101;53.126;6.878;2023-05-27T02:31:29;9.40;99.90
52103;DHT22;38101;53.126;6.878;2023-05-27T02:33:55;9.40;99.90
52103;DHT22;38101;53.126;6.878;2023-05-27T02:36:20;9.40;99.90
52103;DHT22;38101;53.126;6.878;2023-05-27T02:38:49;9.40;99.90
52103;DHT22;38101;53.126;6.878;2023-05-27T02:41:15;9.40;99.90
52103;DHT22;38101;53.126;6.878;2023-05-27T02:43:41;9.30;99.90
52103;DHT22;38101;53.126;6.878;2023-05-27T02:46:07;9.30;99.90
52103;DHT22;38101;53.126;6.878;2023-05-27T02:48:32;9.30;99.90
52103;DHT22;38101;53.126;6.878;2023-05-27T02:50:58;9.30;99.90
52103;DHT22;38101;53.126;6.878;2023-05-27T02:53:24;9.30;99.90
52103;DHT22;38101;53.126;6.878;2023-05-27T02:55:50;9.30;99.90
52103;DHT22;38101;53.126;6.878;2023-05-27T02:58:16;9.40;99.90
52103;DHT22;38101;53.126;6.878;2023-05-27T03:00:42;9.30;99.90
52103;DHT22;38101;53.126;6.878;2023-05-27T03:03:08;9.30;99.90
52103;DHT22;38101;53.126;6.878;2023-05-27T03:05:34;9.30;99.90
52103;DHT22;38101;53.126;6.878;2023-05-27T03:08:01;9.30;99.90
52103;DHT22;38101;53.126;6.878;2023-05-27T03:10:27;9.30;99.90
52103;DHT22;38101;53.126;6.878;2023-05-27T03:12:56;9.30;99.90
52103;DHT22;38101;53.126;6.878;2023-05-27T03:15:21;9.30;99.90
52103;DHT22;38101;53.126;6.878;2023-05-27T03:17:47;9.30;99.90
52103;DHT22;38101;53.126;6.878;2023-05-27T03:20:13;9.30;99.90
52103;DHT22;38101;53.126;6.878;2023-05-27T03:22:39;9.30;99.90
52103;DHT22;38101;53.126;6.878;2023-05-27T03:25:05;9.30;99.90
52103;DHT22;38101;53.126;6.878;2023-05-27T03:27:32;9.30;99.90
52103;DHT22;38101;53.126;6.878;2023-05-27T03:29:57;9.30;99.90
52103;DHT22;38101;53.126;6.878;2023-05-27T03:32:23;9.30;99.90
52103;DHT22;38101;53.126;6.878;2023-05-27T03:34:49;9.30;99.90
52103;DHT22;38101;53.126;6.878;2023-05-27T03:37:15;9.40;99.90
52103;DHT22;38101;53.126;6.878;2023-05-27T03:39:41;9.30;99.90
52103;DHT22;38101;53.126;6.878;2023-05-27T03:42:07;9.30;99.90
52103;DHT22;38101;53.126;6.878;2023-05-27T03:44:33;9.30;99.90
52103;DHT22;38101;53.126;6.878;2023-05-27T03:47:01;9.30;99.90
52103;DHT22;38101;53.126;6.878;2023-05-27T03:49:26;9.20;99.90
52103;DHT22;38101;53.126;6.878;2023-05-27T03:51:52;9.20;99.90
52103;DHT22;38101;53.126;6.878;2023-05-27T03:54:18;9.20;99.90
52103;DHT22;38101;53.126;6.878;2023-05-27T03:56:44;9.20;99.90
52103;DHT22;38101;53.126;6.878;2023-05-27T03:59:09;9.20;99.90
52103;DHT22;38101;53.126;6.878;2023-05-27T04:01:37;9.20;99.90
52103;DHT22;38101;53.126;6.878;2023-05-27T04:04:03;9.20;99.90
52103;DHT22;38101;53.126;6.878;2023-05-27T04:06:29;9.20;99.90
52103;DHT22;38101;53.126;6.878;2023-05-27T04:08:57;9.20;99.90
52103;DHT22;38101;53.126;6.878;2023-05-27T04:11:25;9.20;99.90
52103;DHT22;38101;53.126;6.878;2023-05-27T04:13:52;9.20;99.90
52103;DHT22;38101;53.126;6.878;2023-05-27T04:16:18;9.20;99.90
52103;DHT22;38101;53.126;6.878;2023-05-27T04:18:44;9.20;99.90
52103;DHT22;38101;53.126;6.878;2023-05-27T04:21:15;9.20;99.90
52103;DHT22;38101;53.126;6.878;2023-05-27T04:23:41;9.20;99.90
52103;DHT22;38101;53.126;6.878;2023-05-27T04:26:06;9.20;99.90
52103;DHT22;38101;53.126;6.878;2023-05-27T04:28:32;9.30;99.90
52103;DHT22;38101;53.126;6.878;2023-05-27T04:30:59;9.30;99.90
52103;DHT22;38101;53.126;6.878;2023-05-27T04:33:25;9.40;99.90
52103;DHT22;38101;53.126;6.878;2023-05-27T04:35:52;9.40;99.90
52103;DHT22;38101;53.126;6.878;2023-05-27T04:38:20;9.40;99.90
52103;DHT22;38101;53.126;6.878;2023-05-27T04:40:47;9.50;99.90
52103;DHT22;38101;53.126;6.878;2023-05-27T04:43:18;9.50;99.90
52103;DHT22;38101;53.126;6.878;2023-05-27T04:45:45;9.60;99.90
52103;DHT22;38101;53.126;6.878;2023-05-27T04:48:11;9.60;99.90
52103;DHT22;38101;53.126;6.878;2023-05-27T04:50:37;9.60;99.90
52103;DHT22;38101;53.126;6.878;2023-05-27T04:53:03;9.70;99.90
52103;DHT22;38101;53.126;6.878;2023-05-27T04:55:29;9.70;99.90
52103;DHT22;38101;53.126;6.878;2023-05-27T04:57:56;9.80;99.90
52103;DHT22;38101;53.126;6.878;2023-05-27T05:00:22;9.90;99.90
52103;DHT22;38101;53.126;6.878;2023-05-27T05:02:49;9.90;99.90
52103;DHT22;38101;53.126;6.878;2023-05-27T05:05:25;10.00;99.90
52103;DHT22;38101;53.126;6.878;2023-05-27T05:07:51;10.00;99.90
52103;DHT22;38101;53.126;6.878;2023-05-27T05:10:17;10.00;99.90
52103;DHT22;38101;53.126;6.878;2023-05-27T05:12:43;10.10;99.90
52103;DHT22;38101;53.126;6.878;2023-05-27T05:15:09;10.20;99.90
52103;DHT22;38101;53.126;6.878;2023-05-27T05:17:35;10.20;99.90
52103;DHT22;38101;53.126;6.878;2023-05-27T05:20:00;10.30;99.90
52103;DHT22;38101;53.126;6.878;2023-05-27T05:22:26;10.30;99.90
52103;DHT22;38101;53.126;6.878;2023-05-27T05:24:54;10.40;99.90
52103;DHT22;38101;53.126;6.878;2023-05-27T05:27:20;10.40;99.90
52103;DHT22;38101;53.126;6.878;2023-05-27T05:29:46;10.40;99.90
52103;DHT22;38101;53.126;6.878;2023-05-27T05:32:12;10.40;99.90
52103;DHT22;38101;53.126;6.878;2023-05-27T05:34:39;10.50;99.90
52103;DHT22;38101;53.126;6.878;2023-05-27T05:37:05;10.50;99.90
52103;DHT22;38101;53.126;6.878;2023-05-27T05:39:32;10.50;99.90
52103;DHT22;38101;53.126;6.878;2023-05-27T05:41:58;10.60;99.90
52103;DHT22;38101;53.126;6.878;2023-05-27T05:44:24;10.60;99.90
52103;DHT22;38101;53.126;6.878;2023-05-27T05:46:51;10.60;99.90
52103;DHT22;38101;53.126;6.878;2023-05-27T05:49:18;10.60;99.90
52103;DHT22;38101;53.126;6.878;2023-05-27T05:51:45;10.70;99.90
52103;DHT22;38101;53.126;6.878;2023-05-27T05:54:11;10.70;99.90
52103;DHT22;38101;53.126;6.878;2023-05-27T05:56:36;10.70;99.90
52103;DHT22;38101;53.126;6.878;2023-05-27T05:59:02;10.70;99.90
52103;DHT22;38101;53.126;6.878;2023-05-27T06:01:28;10.70;99.90
52103;DHT22;38101;53.126;6.878;2023-05-27T06:03:54;10.70;99.90
52103;DHT22;38101;53.126;6.878;2023-05-27T06:06:21;10.80;99.90
52103;DHT22;38101;53.126;6.878;2023-05-27T06:08:47;10.80;99.90
52103;DHT22;38101;53.126;6.878;2023-05-27T06:11:13;10.80;99.90
52103;DHT22;38101;53.126;6.878;2023-05-27T06:13:39;10.80;99.90
52103;DHT22;38101;53.126;6.878;2023-05-27T06:16:05;10.90;99.90
52103;DHT22;38101;53.126;6.878;2023-05-27T06:18:31;10.90;99.90
52103;DHT22;38101;53.126;6.878;2023-05-27T06:20:57;10.90;99.90
52103;DHT22;38101;53.126;6.878;2023-05-27T06:23:22;11.00;99.90
52103;DHT22;38101;53.126;6.878;2023-05-27T06:25:48;11.00;99.90
52103;DHT22;38101;53.126;6.878;2023-05-27T06:28:14;11.10;99.90
52103;DHT22;38101;53.126;6.878;2023-05-27T06:30:40;11.10;99.90
52103;DHT22;38101;53.126;6.878;2023-05-27T06:33:07;11.10;99.90
52103;DHT22;38101;53.126;6.878;2023-05-27T06:35:32;11.10;99.90
52103;DHT22;38101;53.126;6.878;2023-05-27T06:37:59;11.10;99.90
52103;DHT22;38101;53.126;6.878;2023-05-27T06:40:24;11.10;99.90
52103;DHT22;38101;53.126;6.878;2023-05-27T06:42:50;11.10;99.90
52103;DHT22;38101;53.126;6.878;2023-05-27T06:45:16;11.10;99.90
52103;DHT22;38101;53.126;6.878;2023-05-27T06:47:42;11.10;99.90
52103;DHT22;38101;53.126;6.878;2023-05-27T06:50:08;11.20;99.90
52103;DHT22;38101;53.126;6.878;2023-05-27T06:52:33;11.20;99.90
52103;DHT22;38101;53.126;6.878;2023-05-27T06:55:00;11.30;99.90
52103;DHT22;38101;53.126;6.878;2023-05-27T06:57:26;11.30;99.90
52103;DHT22;38101;53.126;6.878;2023-05-27T06:59:52;11.30;99.90
52103;DHT22;38101;53.126;6.878;2023-05-27T07:02:18;11.40;99.90
52103;DHT22;38101;53.126;6.878;2023-05-27T07:04:43;11.40;99.90
52103;DHT22;38101;53.126;6.878;2023-05-27T07:07:09;11.50;99.90
52103;DHT22;38101;53.126;6.878;2023-05-27T07:09:35;11.60;99.90
52103;DHT22;38101;53.126;6.878;2023-05-27T07:12:01;11.60;99.90
52103;DHT22;38101;53.126;6.878;2023-05-27T07:14:27;11.70;99.90
52103;DHT22;38101;53.126;6.878;2023-05-27T07:16:53;11.80;99.90
52103;DHT22;38101;53.126;6.878;2023-05-27T07:19:19;11.80;99.90
52103;DHT22;38101;53.126;6.878;2023-05-27T07:21:45;11.90;99.90
52103;DHT22;38101;53.126;6.878;2023-05-27T07:24:10;11.90;99.90
52103;DHT22;38101;53.126;6.878;2023-05-27T07:26:36;11.90;99.90
52103;DHT22;38101;53.126;6.878;2023-05-27T07:29:02;12.00;99.90
52103;DHT22;38101;53.126;6.878;2023-05-27T07:31:29;12.00;99.90
52103;DHT22;38101;53.126;6.878;2023-05-27T07:33:55;12.00;99.90
52103;DHT22;38101;53.126;6.878;2023-05-27T07:36:21;12.10;99.90
52103;DHT22;38101;53.126;6.878;2023-05-27T07:38:47;12.10;99.90
52103;DHT22;38101;53.126;6.878;2023-05-27T07:41:13;12.10;99.90
52103;DHT22;38101;53.126;6.878;2023-05-27T07:43:40;12.20;99.90
52103;DHT22;38101;53.126;6.878;2023-05-27T07:46:05;12.20;99.90
52103;DHT22;38101;53.126;6.878;2023-05-27T07:48:31;12.20;99.90
52103;DHT22;38101;53.126;6.878;2023-05-27T07:50:57;12.30;99.90
52103;DHT22;38101;53.126;6.878;2023-05-27T07:53:23;12.30;99.90
52103;DHT22;38101;53.126;6.878;2023-05-27T07:55:49;12.30;99.90
52103;DHT22;38101;53.126;6.878;2023-05-27T07:58:14;12.30;99.90
52103;DHT22;38101;53.126;6.878;2023-05-27T08:00:40;12.40;99.90
52103;DHT22;38101;53.126;6.878;2023-05-27T08:03:06;12.40;99.90
52103;DHT22;38101;53.126;6.878;2023-05-27T08:05:32;12.50;99.90
52103;DHT22;38101;53.126;6.878;2023-05-27T08:07:59;12.50;99.90
52103;DHT22;38101;53.126;6.878;2023-05-27T08:10:25;12.60;99.90
52103;DHT22;38101;53.126;6.878;2023-05-27T08:12:51;12.60;99.90
52103;DHT22;38101;53.126;6.878;2023-05-27T08:15:17;12.70;99.90
52103;DHT22;38101;53.126;6.878;2023-05-27T08:17:43;12.70;99.90
52103;DHT22;38101;53.126;6.878;2023-05-27T08:20:12;12.80;99.90
52103;DHT22;38101;53.126;6.878;2023-05-27T08:22:38;12.90;99.90
52103;DHT22;38101;53.126;6.878;2023-05-27T08:25:04;12.90;99.90
52103;DHT22;38101;53.126;6.878;2023-05-27T08:27:49;13.00;99.90
52103;DHT22;38101;53.126;6.878;2023-05-27T08:30:15;13.00;99.90
52103;DHT22;38101;53.126;6.878;2023-05-27T08:32:41;13.00;99.90
52103;DHT22;38101;53.126;6.878;2023-05-27T08:35:07;13.10;99.90
52103;DHT22;38101;53.126;6.878;2023-05-27T08:37:33;13.10;99.90
52103;DHT22;38101;53.126;6.878;2023-05-27T08:39:59;13.20;99.90
52103;DHT22;38101;53.126;6.878;2023-05-27T08:42:25;13.30;99.90
52103;DHT22;38101;53.126;6.878;2023-05-27T08:44:51;13.30;99.90
52103;DHT22;38101;53.126;6.878;2023-05-27T08:47:16;13.40;99.90
52103;DHT22;38101;53.126;6.878;2023-05-27T08:49:43;13.40;99.90
52103;DHT22;38101;53.126;6.878;2023-05-27T08:52:14;13.50;99.90
52103;DHT22;38101;53.126;6.878;2023-05-27T08:54:41;13.60;99.90
52103;DHT22;38101;53.126;6.878;2023-05-27T08:57:09;13.70;99.90
52103;DHT22;38101;53.126;6.878;2023-05-27T08:59:39;13.70;99.90
52103;DHT22;38101;53.126;6.878;2023-05-27T09:02:11;13.80;99.90
52103;DHT22;38101;53.126;6.878;2023-05-27T09:04:40;13.90;99.90
52103;DHT22;38101;53.126;6.878;2023-05-27T09:07:07;14.00;99.90
52103;DHT22;38101;53.126;6.878;2023-05-27T09:09:33;14.10;99.90
52103;DHT22;38101;53.126;6.878;2023-05-27T09:12:03;14.10;99.90
52103;DHT22;38101;53.126;6.878;2023-05-27T09:14:29;14.20;99.90
52103;DHT22;38101;53.126;6.878;2023-05-27T09:16:56;14.30;99.90
52103;DHT22;38101;53.126;6.878;2023-05-27T09:19:22;14.40;99.90
52103;DHT22;38101;53.126;6.878;2023-05-27T09:21:52;14.40;99.90
52103;DHT22;38101;53.126;6.878;2023-05-27T09:24:24;14.50;99.90
52103;DHT22;38101;53.126;6.878;2023-05-27T09:26:51;14.60;99.90
52103;DHT22;38101;53.126;6.878;2023-05-27T09:29:26;14.60;99.90
52103;DHT22;38101;53.126;6.878;2023-05-27T09:31:55;14.70;99.90
52103;DHT22;38101;53.126;6.878;2023-05-27T09:34:22;14.70;99.90
52103;DHT22;38101;53.126;6.878;2023-05-27T09:36:50;14.70;99.90
52103;DHT22;38101;53.126;6.878;2023-05-27T09:39:21;14.80;99.90
52103;DHT22;38101;53.126;6.878;2023-05-27T09:41:54;14.90;99.90
52103;DHT22;38101;53.126;6.878;2023-05-27T09:44:28;15.00;99.90
52103;DHT22;38101;53.126;6.878;2023-05-27T09:46:56;15.10;99.90
52103;DHT22;38101;53.126;6.878;2023-05-27T09:49:25;15.10;99.90
52103;DHT22;38101;53.126;6.878;2023-05-27T09:51:53;15.20;99.90
52103;DHT22;38101;53.126;6.878;2023-05-27T09:54:20;15.20;99.90
52103;DHT22;38101;53.126;6.878;2023-05-27T09:56:47;15.30;99.90
52103;DHT22;38101;53.126;6.878;2023-05-27T09:59:14;15.30;99.90
52103;DHT22;38101;53.126;6.878;2023-05-27T10:01:41;15.40;99.90
52103;DHT22;38101;53.126;6.878;2023-05-27T10:04:10;15.40;99.90
52103;DHT22;38101;53.126;6.878;2023-05-27T10:06:37;15.50;99.90
52103;DHT22;38101;53.126;6.878;2023-05-27T10:09:05;15.60;99.90
52103;DHT22;38101;53.126;6.878;2023-05-27T10:11:34;15.60;99.90
52103;DHT22;38101;53.126;6.878;2023-05-27T10:14:05;15.60;99.90
52103;DHT22;38101;53.126;6.878;2023-05-27T10:16:31;15.60;99.90
52103;DHT22;38101;53.126;6.878;2023-05-27T10:18:58;15.70;99.90
52103;DHT22;38101;53.126;6.878;2023-05-27T10:21:28;15.90;99.90
52103;DHT22;38101;53.126;6.878;2023-05-27T10:23:58;16.00;99.90
52103;DHT22;38101;53.126;6.878;2023-05-27T10:26:36;16.10;99.90
52103;DHT22;38101;53.126;6.878;2023-05-27T10:29:20;16.10;99.90
52103;DHT22;38101;53.126;6.878;2023-05-27T10:31:51;16.20;99.90
52103;DHT22;38101;53.126;6.878;2023-05-27T10:34:17;16.30;99.90
52103;DHT22;38101;53.126;6.878;2023-05-27T10:36:46;16.40;99.90
52103;DHT22;38101;53.126;6.878;2023-05-27T10:39:17;16.50;99.90
52103;DHT22;38101;53.126;6.878;2023-05-27T10:41:51;16.60;99.90
52103;DHT22;38101;53.126;6.878;2023-05-27T10:44:35;16.60;99.90
52103;DHT22;38101;53.126;6.878;2023-05-27T10:47:02;16.60;99.90
52103;DHT22;38101;53.126;6.878;2023-05-27T10:49:32;16.70;99.90
52103;DHT22;38101;53.126;6.878;2023-05-27T10:52:16;16.80;99.90
52103;DHT22;38101;53.126;6.878;2023-05-27T10:54:46;16.90;99.90
52103;DHT22;38101;53.126;6.878;2023-05-27T10:57:13;17.00;99.90
52103;DHT22;38101;53.126;6.878;2023-05-27T11:02:06;17.10;99.90
52103;DHT22;38101;53.126;6.878;2023-05-27T11:04:36;17.20;99.90
52103;DHT22;38101;53.126;6.878;2023-05-27T11:07:02;17.20;99.90
52103;DHT22;38101;53.126;6.878;2023-05-27T11:09:29;17.30;99.90
52103;DHT22;38101;53.126;6.878;2023-05-27T11:12:01;17.40;99.90
52103;DHT22;38101;53.126;6.878;2023-05-27T11:14:28;17.60;99.90
52103;DHT22;38101;53.126;6.878;2023-05-27T11:16:54;17.60;99.90
52103;DHT22;38101;53.126;6.878;2023-05-27T11:19:22;17.70;99.90
52103;DHT22;38101;53.126;6.878;2023-05-27T11:21:49;17.80;99.90
52103;DHT22;38101;53.126;6.878;2023-05-27T11:24:18;17.90;99.90
52103;DHT22;38101;53.126;6.878;2023-05-27T11:26:46;18.00;99.90
52103;DHT22;38101;53.126;6.878;2023-05-27T11:29:13;18.20;99.90
52103;DHT22;38101;53.126;6.878;2023-05-27T11:31:40;18.30;99.90
52103;DHT22;38101;53.126;6.878;2023-05-27T11:34:16;18.40;99.90
52103;DHT22;38101;53.126;6.878;2023-05-27T11:36:44;18.50;99.90
52103;DHT22;38101;53.126;6.878;2023-05-27T11:39:14;18.60;99.90
52103;DHT22;38101;53.126;6.878;2023-05-27T11:41:49;18.60;99.90
52103;DHT22;38101;53.126;6.878;2023-05-27T11:44:15;18.70;99.90
52103;DHT22;38101;53.126;6.878;2023-05-27T11:46:43;18.70;99.90
52103;DHT22;38101;53.126;6.878;2023-05-27T11:49:11;18.80;99.90
52103;DHT22;38101;53.126;6.878;2023-05-27T11:54:22;19.00;99.90
52103;DHT22;38101;53.126;6.878;2023-05-27T11:56:48;19.10;99.90
52103;DHT22;38101;53.126;6.878;2023-05-27T11:59:15;19.10;99.90
52103;DHT22;38101;53.126;6.878;2023-05-27T12:01:41;19.20;99.90
52103;DHT22;38101;53.126;6.878;2023-05-27T12:04:07;19.30;99.90
52103;DHT22;38101;53.126;6.878;2023-05-27T12:06:33;19.30;99.90
52103;DHT22;38101;53.126;6.878;2023-05-27T12:08:59;19.30;99.90
52103;DHT22;38101;53.126;6.878;2023-05-27T12:11:25;19.40;99.90
52103;DHT22;38101;53.126;6.878;2023-05-27T12:13:53;19.40;99.90
52103;DHT22;38101;53.126;6.878;2023-05-27T12:16:19;19.50;99.90
52103;DHT22;38101;53.126;6.878;2023-05-27T12:18:45;19.70;99.90
52103;DHT22;38101;53.126;6.878;2023-05-27T12:21:11;19.80;99.90
52103;DHT22;38101;53.126;6.878;2023-05-27T12:23:37;19.90;99.90
52103;DHT22;38101;53.126;6.878;2023-05-27T12:26:03;20.00;99.90
52103;DHT22;38101;53.126;6.878;2023-05-27T12:28:29;20.10;99.90
52103;DHT22;38101;53.126;6.878;2023-05-27T12:30:55;20.10;99.90
52103;DHT22;38101;53.126;6.878;2023-05-27T12:33:21;20.20;99.90
52103;DHT22;38101;53.126;6.878;2023-05-27T12:35:47;20.20;99.90
52103;DHT22;38101;53.126;6.878;2023-05-27T12:38:13;20.20;99.90
52103;DHT22;38101;53.126;6.878;2023-05-27T12:40:39;20.30;99.90
52103;DHT22;38101;53.126;6.878;2023-05-27T12:43:05;20.30;99.90
52103;DHT22;38101;53.126;6.878;2023-05-27T12:45:31;20.40;99.90
52103;DHT22;38101;53.126;6.878;2023-05-27T12:47:58;20.40;99.90
52103;DHT22;38101;53.126;6.878;2023-05-27T12:50:25;20.50;99.90
52103;DHT22;38101;53.126;6.878;2023-05-27T12:52:51;20.60;99.90
52103;DHT22;38101;53.126;6.878;2023-05-27T12:55:19;20.70;99.90
52103;DHT22;38101;53.126;6.878;2023-05-27T12:57:48;20.80;99.90
52103;DHT22;38101;53.126;6.878;2023-05-27T13:00:15;21.00;99.90
52103;DHT22;38101;53.126;6.878;2023-05-27T13:02:41;21.10;99.90
52103;DHT22;38101;53.126;6.878;2023-05-27T13:05:08;21.20;99.90
52103;DHT22;38101;53.126;6.878;2023-05-27T13:07:34;21.20;99.90
52103;DHT22;38101;53.126;6.878;2023-05-27T13:10:05;21.30;99.90
52103;DHT22;38101;53.126;6.878;2023-05-27T13:12:32;21.30;99.90
52103;DHT22;38101;53.126;6.878;2023-05-27T13:14:59;21.30;99.90
52103;DHT22;38101;53.126;6.878;2023-05-27T13:17:26;21.40;99.90
52103;DHT22;38101;53.126;6.878;2023-05-27T13:19:52;21.40;99.90
52103;DHT22;38101;53.126;6.878;2023-05-27T13:22:18;21.50;99.90
52103;DHT22;38101;53.126;6.878;2023-05-27T13:24:44;21.60;99.90
52103;DHT22;38101;53.126;6.878;2023-05-27T13:27:10;21.70;99.90
52103;DHT22;38101;53.126;6.878;2023-05-27T13:29:36;21.70;99.90
52103;DHT22;38101;53.126;6.878;2023-05-27T13:32:02;21.80;99.90
52103;DHT22;38101;53.126;6.878;2023-05-27T13:34:29;21.80;99.90
52103;DHT22;38101;53.126;6.878;2023-05-27T13:36:55;21.80;99.90
52103;DHT22;38101;53.126;6.878;2023-05-27T13:39:22;21.90;99.90
52103;DHT22;38101;53.126;6.878;2023-05-27T13:41:48;21.90;99.90
52103;DHT22;38101;53.126;6.878;2023-05-27T13:44:14;22.00;99.90
52103;DHT22;38101;53.126;6.878;2023-05-27T13:46:40;22.00;99.90
52103;DHT22;38101;53.126;6.878;2023-05-27T13:49:06;22.10;99.90
52103;DHT22;38101;53.126;6.878;2023-05-27T13:51:32;22.10;99.90
52103;DHT22;38101;53.126;6.878;2023-05-27T13:53:58;22.20;99.90
52103;DHT22;38101;53.126;6.878;2023-05-27T13:56:24;22.20;99.90
52103;DHT22;38101;53.126;6.878;2023-05-27T13:58:51;22.30;99.90
52103;DHT22;38101;53.126;6.878;2023-05-27T14:01:20;22.30;99.90
52103;DHT22;38101;53.126;6.878;2023-05-27T14:03:47;22.40;99.90
52103;DHT22;38101;53.126;6.878;2023-05-27T14:06:13;22.50;99.90
52103;DHT22;38101;53.126;6.878;2023-05-27T14:08:38;22.50;99.90
52103;DHT22;38101;53.126;6.878;2023-05-27T14:11:05;22.60;99.90
52103;DHT22;38101;53.126;6.878;2023-05-27T14:13:32;22.60;99.90
52103;DHT22;38101;53.126;6.878;2023-05-27T14:15:57;22.70;99.90
52103;DHT22;38101;53.126;6.878;2023-05-27T14:18:23;22.70;99.90
52103;DHT22;38101;53.126;6.878;2023-05-27T14:20:49;22.80;99.90
52103;DHT22;38101;53.126;6.878;2023-05-27T14:23:15;22.80;99.90
52103;DHT22;38101;53.126;6.878;2023-05-27T14:25:41;22.80;99.90
52103;DHT22;38101;53.126;6.878;2023-05-27T14:28:07;22.80;99.90
52103;DHT22;38101;53.126;6.878;2023-05-27T14:30:33;22.80;99.90
52103;DHT22;38101;53.126;6.878;2023-05-27T14:33:06;22.80;99.90
52103;DHT22;38101;53.126;6.878;2023-05-27T14:35:39;22.90;99.90
52103;DHT22;38101;53.126;6.878;2023-05-27T14:38:06;22.90;99.90
52103;DHT22;38101;53.126;6.878;2023-05-27T14:40:32;22.90;99.90
52103;DHT22;38101;53.126;6.878;2023-05-27T14:42:59;22.90;99.90
52103;DHT22;38101;53.126;6.878;2023-05-27T14:45:24;22.80;99.90
52103;DHT22;38101;53.126;6.878;2023-05-27T14:47:51;22.80;99.90
52103;DHT22;38101;53.126;6.878;2023-05-27T14:50:21;22.70;99.90
52103;DHT22;38101;53.126;6.878;2023-05-27T14:52:48;22.60;99.90
52103;DHT22;38101;53.126;6.878;2023-05-27T14:55:14;22.50;99.90
52103;DHT22;38101;53.126;6.878;2023-05-27T14:57:40;22.50;99.90
52103;DHT22;38101;53.126;6.878;2023-05-27T15:00:06;22.60;99.90
52103;DHT22;38101;53.126;6.878;2023-05-27T15:02:37;22.50;99.90
52103;DHT22;38101;53.126;6.878;2023-05-27T15:05:04;22.60;99.90
52103;DHT22;38101;53.126;6.878;2023-05-27T15:07:33;22.60;99.90
52103;DHT22;38101;53.126;6.878;2023-05-27T15:10:00;22.60;99.90
52103;DHT22;38101;53.126;6.878;2023-05-27T15:12:37;22.60;99.90
52103;DHT22;38101;53.126;6.878;2023-05-27T15:15:03;22.50;99.90
52103;DHT22;38101;53.126;6.878;2023-05-27T15:17:29;22.50;99.90
52103;DHT22;38101;53.126;6.878;2023-05-27T15:19:55;22.50;99.90
52103;DHT22;38101;53.126;6.878;2023-05-27T15:22:21;22.60;99.90
52103;DHT22;38101;53.126;6.878;2023-05-27T15:24:47;22.60;99.90
52103;DHT22;38101;53.126;6.878;2023-05-27T15:27:13;22.60;99.90
52103;DHT22;38101;53.126;6.878;2023-05-27T15:29:38;22.50;99.90
52103;DHT22;38101;53.126;6.878;2023-05-27T15:32:05;22.50;99.90
52103;DHT22;38101;53.126;6.878;2023-05-27T15:34:30;22.50;99.90
52103;DHT22;38101;53.126;6.878;2023-05-27T15:36:56;22.50;99.90
52103;DHT22;38101;53.126;6.878;2023-05-27T15:39:23;22.50;99.90
52103;DHT22;38101;53.126;6.878;2023-05-27T15:41:49;22.50;99.90